JTA4 ROAH-RJBB
Flight info
| Callsign | JTA4 |
|---|---|
| Flight time | 1h 38m |
| Altitude | 37000 |
| Route | AMAMI Y53 NIXOV |
| Aircraft | B738/M-SDE2E3FGHIRWXY/LB1 |
Departure
| Time | 2026-04-22 07:15 |
|---|---|
| Airport | Naha International Airport (ROAH) |
Arrival
| Time | 2026-04-22 08:53 |
|---|---|
| Airport | Kansai International Airport (RJBB) |
| Time | Latitude | Longitude | Altitude | Speed | Heading |
|---|---|---|---|---|---|
| 2026-04-22 06:53 | 26.20421 | 127.65001 | 20 ft | 0 kts | 27° |
| 2026-04-22 07:06 | 26.20420 | 127.65000 | 21 ft | 1 kts | 27° |
| 2026-04-22 07:06 | 26.20399 | 127.64988 | 21 ft | 4 kts | 28° |
| 2026-04-22 07:07 | 26.20375 | 127.64973 | 23 ft | 4 kts | 42° |
| 2026-04-22 07:07 | 26.20360 | 127.64950 | 22 ft | 4 kts | 72° |
| 2026-04-22 07:07 | 26.20356 | 127.64922 | 22 ft | 4 kts | 88° |
| 2026-04-22 07:07 | 26.20355 | 127.64892 | 20 ft | 4 kts | 88° |
| 2026-04-22 07:08 | 26.20354 | 127.64862 | 19 ft | 4 kts | 87° |
| 2026-04-22 07:08 | 26.20353 | 127.64838 | 19 ft | 3 kts | 87° |
| 2026-04-22 07:08 | 26.20349 | 127.64810 | 18 ft | 4 kts | 72° |
| 2026-04-22 07:08 | 26.20338 | 127.64783 | 18 ft | 4 kts | 48° |
| 2026-04-22 07:09 | 26.20317 | 127.64765 | 17 ft | 4 kts | 19° |
| 2026-04-22 07:09 | 26.20293 | 127.64760 | 18 ft | 2 kts | 358° |
| 2026-04-22 07:09 | 26.20270 | 127.64762 | 16 ft | 3 kts | 358° |
| 2026-04-22 07:09 | 26.20266 | 127.64762 | 16 ft | 1 kts | 358° |
| 2026-04-22 07:11 | 26.20270 | 127.64762 | 16 ft | 2 kts | 358° |
| 2026-04-22 07:12 | 26.20295 | 127.64760 | 18 ft | 6 kts | 358° |
| 2026-04-22 07:12 | 26.20347 | 127.64758 | 16 ft | 9 kts | 358° |
| 2026-04-22 07:12 | 26.20421 | 127.64755 | 17 ft | 12 kts | 358° |
| 2026-04-22 07:12 | 26.20521 | 127.64750 | 17 ft | 16 kts | 358° |
| 2026-04-22 07:13 | 26.20648 | 127.64744 | 16 ft | 20 kts | 357° |
| 2026-04-22 07:13 | 26.20791 | 127.64737 | 16 ft | 21 kts | 357° |
| 2026-04-22 07:13 | 26.20896 | 127.64698 | 18 ft | 15 kts | 296° |
| 2026-04-22 07:13 | 26.20898 | 127.64574 | 16 ft | 11 kts | 266° |
| 2026-04-22 07:14 | 26.20845 | 127.64527 | 17 ft | 11 kts | 180° |
| 2026-04-22 07:14 | 26.20827 | 127.64528 | 17 ft | 4 kts | 177° |
| 2026-04-22 07:14 | 26.20590 | 127.64539 | 18 ft | 69 kts | 178° |
| 2026-04-22 07:14 | 26.19884 | 127.64573 | 14 ft | 131 kts | 178° |
| 2026-04-22 07:15 | 26.18860 | 127.64619 | 317 ft | 156 kts | 179° |
| 2026-04-22 07:15 | 26.17806 | 127.64674 | 1117 ft | 150 kts | 179° |
| 2026-04-22 07:15 | 26.16733 | 127.64734 | 1747 ft | 160 kts | 180° |
| 2026-04-22 07:15 | 26.15524 | 127.64797 | 2113 ft | 190 kts | 180° |
| 2026-04-22 07:16 | 26.14118 | 127.64868 | 2351 ft | 213 kts | 180° |
| 2026-04-22 07:16 | 26.12584 | 127.64945 | 2679 ft | 231 kts | 180° |
| 2026-04-22 07:16 | 26.10909 | 127.65025 | 3061 ft | 250 kts | 180° |
| 2026-04-22 07:16 | 26.09149 | 127.65106 | 3742 ft | 257 kts | 181° |
| 2026-04-22 07:17 | 26.07333 | 127.65183 | 4449 ft | 265 kts | 182° |
| 2026-04-22 07:17 | 26.05460 | 127.65263 | 5175 ft | 271 kts | 181° |
| 2026-04-22 07:17 | 26.03592 | 127.65542 | 6025 ft | 276 kts | 162° |
| 2026-04-22 07:17 | 26.01995 | 127.66746 | 6821 ft | 285 kts | 134° |
| 2026-04-22 07:18 | 26.01059 | 127.68712 | 7526 ft | 297 kts | 104° |
| 2026-04-22 07:18 | 26.00952 | 127.71021 | 8254 ft | 302 kts | 89° |
| 2026-04-22 07:18 | 26.01116 | 127.73366 | 8948 ft | 308 kts | 77° |
| 2026-04-22 07:18 | 26.02048 | 127.75497 | 9660 ft | 309 kts | 51° |
| 2026-04-22 07:19 | 26.03397 | 127.77374 | 10336 ft | 314 kts | 49° |
| 2026-04-22 07:19 | 26.04841 | 127.79303 | 10550 ft | 337 kts | 48° |
| 2026-04-22 07:19 | 26.06387 | 127.81364 | 10715 ft | 358 kts | 49° |
| 2026-04-22 07:19 | 26.08015 | 127.83554 | 10989 ft | 374 kts | 49° |
| 2026-04-22 07:20 | 26.09681 | 127.85820 | 11475 ft | 383 kts | 49° |
| 2026-04-22 07:20 | 26.11372 | 127.88133 | 12086 ft | 386 kts | 49° |
| 2026-04-22 07:20 | 26.13045 | 127.90428 | 12756 ft | 388 kts | 49° |
| 2026-04-22 07:20 | 26.14772 | 127.92798 | 13421 ft | 391 kts | 49° |
| 2026-04-22 07:21 | 26.16483 | 127.95124 | 14009 ft | 395 kts | 46° |
| 2026-04-22 07:21 | 26.18611 | 127.97084 | 14563 ft | 392 kts | 28° |
| 2026-04-22 07:21 | 26.20970 | 127.98628 | 15168 ft | 395 kts | 27° |
| 2026-04-22 07:21 | 26.23354 | 128.00183 | 15730 ft | 399 kts | 27° |
| 2026-04-22 07:22 | 26.25726 | 128.01744 | 16288 ft | 403 kts | 27° |
| 2026-04-22 07:22 | 26.28144 | 128.03352 | 16857 ft | 407 kts | 28° |
| 2026-04-22 07:22 | 26.30583 | 128.04987 | 17403 ft | 411 kts | 28° |
| 2026-04-22 07:22 | 26.33043 | 128.06646 | 17954 ft | 415 kts | 28° |
| 2026-04-22 07:23 | 26.35523 | 128.08323 | 18450 ft | 418 kts | 28° |
| 2026-04-22 07:23 | 26.38017 | 128.10013 | 18932 ft | 421 kts | 28° |
| 2026-04-22 07:23 | 26.40528 | 128.11716 | 19390 ft | 424 kts | 28° |
| 2026-04-22 07:23 | 26.43063 | 128.13436 | 19841 ft | 428 kts | 28° |
| 2026-04-22 07:24 | 26.45614 | 128.15167 | 20288 ft | 431 kts | 28° |
| 2026-04-22 07:24 | 26.48185 | 128.16913 | 20739 ft | 434 kts | 28° |
| 2026-04-22 07:24 | 26.50776 | 128.18673 | 21161 ft | 438 kts | 27° |
| 2026-04-22 07:24 | 26.53388 | 128.20448 | 21574 ft | 441 kts | 27° |
| 2026-04-22 07:25 | 26.56014 | 128.22234 | 21987 ft | 444 kts | 27° |
| 2026-04-22 07:25 | 26.58664 | 128.24038 | 22404 ft | 447 kts | 27° |
| 2026-04-22 07:25 | 26.61325 | 128.25850 | 22813 ft | 450 kts | 27° |
| 2026-04-22 07:25 | 26.64006 | 128.27676 | 23205 ft | 453 kts | 27° |
| 2026-04-22 07:26 | 26.66704 | 128.29513 | 23561 ft | 456 kts | 27° |
| 2026-04-22 07:26 | 26.69295 | 128.31596 | 23856 ft | 465 kts | 41° |
| 2026-04-22 07:26 | 26.71394 | 128.34382 | 24210 ft | 469 kts | 50° |
| 2026-04-22 07:26 | 26.73380 | 128.37280 | 24554 ft | 471 kts | 50° |
| 2026-04-22 07:27 | 26.75376 | 128.40200 | 24861 ft | 473 kts | 50° |
| 2026-04-22 07:27 | 26.77394 | 128.43119 | 25157 ft | 476 kts | 50° |
| 2026-04-22 07:27 | 26.79442 | 128.46040 | 25463 ft | 478 kts | 49° |
| 2026-04-22 07:27 | 26.81514 | 128.48969 | 25777 ft | 480 kts | 49° |
| 2026-04-22 07:28 | 26.85687 | 128.54844 | 26371 ft | 485 kts | 49° |
| 2026-04-22 07:28 | 26.87790 | 128.57808 | 26639 ft | 488 kts | 49° |
| 2026-04-22 07:28 | 26.89907 | 128.60796 | 26928 ft | 490 kts | 49° |
| 2026-04-22 07:29 | 26.92002 | 128.63746 | 27207 ft | 491 kts | 47° |
| 2026-04-22 07:29 | 26.94454 | 128.66372 | 27437 ft | 487 kts | 30° |
| 2026-04-22 07:29 | 26.97392 | 128.68211 | 27796 ft | 483 kts | 24° |
| 2026-04-22 07:29 | 27.00373 | 128.69946 | 28085 ft | 484 kts | 24° |
| 2026-04-22 07:30 | 27.03374 | 128.71703 | 28289 ft | 488 kts | 24° |
| 2026-04-22 07:30 | 27.06386 | 128.73486 | 28478 ft | 492 kts | 24° |
| 2026-04-22 07:30 | 27.09413 | 128.75299 | 28734 ft | 494 kts | 24° |
| 2026-04-22 07:30 | 27.12438 | 128.77126 | 29006 ft | 495 kts | 25° |
| 2026-04-22 07:31 | 27.15472 | 128.78968 | 29259 ft | 497 kts | 25° |
| 2026-04-22 07:31 | 27.18521 | 128.80824 | 29491 ft | 499 kts | 25° |
| 2026-04-22 07:31 | 27.21573 | 128.82684 | 29736 ft | 501 kts | 25° |
| 2026-04-22 07:31 | 27.24647 | 128.84557 | 29894 ft | 504 kts | 25° |
| 2026-04-22 07:32 | 27.27741 | 128.86442 | 30070 ft | 507 kts | 25° |
| 2026-04-22 07:32 | 27.30843 | 128.88334 | 30344 ft | 506 kts | 24° |
| 2026-04-22 07:32 | 27.33920 | 128.90212 | 30763 ft | 502 kts | 25° |
| 2026-04-22 07:32 | 27.36973 | 128.92078 | 31265 ft | 496 kts | 24° |
| 2026-04-22 07:33 | 27.39991 | 128.93923 | 31664 ft | 493 kts | 24° |
| 2026-04-22 07:33 | 27.43010 | 128.95767 | 31937 ft | 493 kts | 24° |
| 2026-04-22 07:33 | 27.46024 | 128.97609 | 32203 ft | 494 kts | 24° |
| 2026-04-22 07:33 | 27.49047 | 128.99457 | 32552 ft | 492 kts | 24° |
| 2026-04-22 07:34 | 27.52044 | 129.01292 | 32964 ft | 489 kts | 24° |
| 2026-04-22 07:34 | 27.55026 | 129.03119 | 33382 ft | 486 kts | 24° |
| 2026-04-22 07:34 | 27.57987 | 129.04934 | 33742 ft | 484 kts | 24° |
| 2026-04-22 07:34 | 27.60948 | 129.06750 | 34047 ft | 483 kts | 24° |
| 2026-04-22 07:35 | 27.63895 | 129.08558 | 34332 ft | 482 kts | 24° |
| 2026-04-22 07:35 | 27.66805 | 129.10344 | 34612 ft | 481 kts | 24° |
| 2026-04-22 07:35 | 27.69777 | 129.12170 | 34916 ft | 479 kts | 24° |
| 2026-04-22 07:35 | 27.72698 | 129.13966 | 35262 ft | 476 kts | 24° |
| 2026-04-22 07:36 | 27.75597 | 129.15750 | 35593 ft | 474 kts | 23° |
| 2026-04-22 07:36 | 27.78448 | 129.17505 | 35849 ft | 473 kts | 23° |
| 2026-04-22 07:36 | 27.81372 | 129.19304 | 36036 ft | 474 kts | 23° |
| 2026-04-22 07:36 | 27.84284 | 129.21096 | 36172 ft | 476 kts | 23° |
| 2026-04-22 07:37 | 27.87152 | 129.22864 | 36426 ft | 475 kts | 23° |
| 2026-04-22 07:37 | 27.90041 | 129.24648 | 36742 ft | 473 kts | 23° |
| 2026-04-22 07:37 | 27.92920 | 129.26428 | 37034 ft | 471 kts | 23° |
| 2026-04-22 07:37 | 27.95799 | 129.28207 | 37246 ft | 471 kts | 23° |
| 2026-04-22 07:38 | 27.98671 | 129.29981 | 37455 ft | 471 kts | 23° |
| 2026-04-22 07:38 | 28.01555 | 129.31763 | 37525 ft | 474 kts | 23° |
| 2026-04-22 07:38 | 28.07371 | 129.35362 | 37822 ft | 476 kts | 22° |
| 2026-04-22 07:39 | 28.10260 | 129.37158 | 38211 ft | 471 kts | 22° |
| 2026-04-22 07:39 | 28.13123 | 129.38936 | 38491 ft | 469 kts | 22° |
| 2026-04-22 07:39 | 28.15995 | 129.40717 | 38637 ft | 470 kts | 22° |
| 2026-04-22 07:39 | 28.18859 | 129.42492 | 38717 ft | 472 kts | 22° |
| 2026-04-22 07:40 | 28.24616 | 129.46077 | 38898 ft | 472 kts | 22° |
| 2026-04-22 07:40 | 28.30406 | 129.49674 | 38887 ft | 476 kts | 22° |
| 2026-04-22 07:41 | 28.36225 | 129.53294 | 38888 ft | 479 kts | 22° |
| 2026-04-22 07:41 | 28.42083 | 129.56950 | 38893 ft | 481 kts | 22° |
| 2026-04-22 07:42 | 28.47876 | 129.60766 | 38876 ft | 480 kts | 26° |
| 2026-04-22 07:42 | 28.53396 | 129.64849 | 38877 ft | 473 kts | 27° |
| 2026-04-22 07:43 | 28.58892 | 129.68962 | 38895 ft | 472 kts | 26° |
| 2026-04-22 07:43 | 28.64401 | 129.73031 | 38897 ft | 472 kts | 26° |
| 2026-04-22 07:44 | 28.69915 | 129.77078 | 38904 ft | 471 kts | 26° |
| 2026-04-22 07:44 | 28.74538 | 129.80469 | 38918 ft | 473 kts | 26° |
| 2026-04-22 07:45 | 28.80072 | 129.84540 | 38914 ft | 474 kts | 26° |
| 2026-04-22 07:45 | 28.85632 | 129.88630 | 38918 ft | 476 kts | 26° |
| 2026-04-22 07:46 | 28.91169 | 129.92712 | 38928 ft | 478 kts | 26° |
| 2026-04-22 07:46 | 28.96769 | 129.96847 | 38920 ft | 480 kts | 26° |
| 2026-04-22 07:47 | 29.02391 | 130.01003 | 38911 ft | 482 kts | 26° |
| 2026-04-22 07:47 | 29.08029 | 130.05178 | 38911 ft | 483 kts | 26° |
| 2026-04-22 07:48 | 29.13675 | 130.09363 | 38917 ft | 483 kts | 26° |
| 2026-04-22 07:48 | 29.19307 | 130.13545 | 38910 ft | 483 kts | 26° |
| 2026-04-22 07:49 | 29.24938 | 130.17732 | 38906 ft | 481 kts | 26° |
| 2026-04-22 07:49 | 29.30548 | 130.21906 | 38918 ft | 480 kts | 26° |
| 2026-04-22 07:50 | 29.36144 | 130.26076 | 38909 ft | 479 kts | 26° |
| 2026-04-22 07:50 | 29.41724 | 130.30241 | 38912 ft | 478 kts | 26° |
| 2026-04-22 07:51 | 29.47285 | 130.34395 | 38910 ft | 477 kts | 26° |
| 2026-04-22 07:51 | 29.52839 | 130.38550 | 38914 ft | 476 kts | 26° |
| 2026-04-22 07:52 | 29.58381 | 130.42702 | 38918 ft | 476 kts | 26° |
| 2026-04-22 07:52 | 29.63928 | 130.46863 | 38923 ft | 476 kts | 26° |
| 2026-04-22 07:53 | 29.69482 | 130.51036 | 38925 ft | 477 kts | 26° |
| 2026-04-22 07:53 | 29.75047 | 130.55222 | 38924 ft | 479 kts | 26° |
| 2026-04-22 07:54 | 29.80632 | 130.59428 | 38925 ft | 481 kts | 25° |
| 2026-04-22 07:54 | 29.86242 | 130.63660 | 38921 ft | 483 kts | 25° |
| 2026-04-22 07:55 | 29.91867 | 130.67912 | 38928 ft | 484 kts | 25° |
| 2026-04-22 07:55 | 29.97493 | 130.72169 | 38933 ft | 484 kts | 25° |
| 2026-04-22 07:56 | 30.03120 | 130.76431 | 38919 ft | 483 kts | 25° |
| 2026-04-22 07:56 | 30.08732 | 130.80688 | 38918 ft | 482 kts | 25° |
| 2026-04-22 07:57 | 30.14326 | 130.84938 | 38938 ft | 481 kts | 25° |
| 2026-04-22 07:57 | 30.19862 | 130.89150 | 38920 ft | 479 kts | 25° |
| 2026-04-22 07:58 | 30.25409 | 130.93377 | 38931 ft | 477 kts | 25° |
| 2026-04-22 07:58 | 30.30955 | 130.97606 | 38928 ft | 478 kts | 25° |
| 2026-04-22 07:59 | 30.36490 | 131.01835 | 38926 ft | 476 kts | 25° |
| 2026-04-22 07:59 | 30.42017 | 131.06065 | 38933 ft | 475 kts | 25° |
| 2026-04-22 08:00 | 30.47532 | 131.10288 | 38950 ft | 476 kts | 25° |
| 2026-04-22 08:00 | 30.53054 | 131.14523 | 38936 ft | 477 kts | 25° |
| 2026-04-22 08:01 | 30.58592 | 131.18779 | 38942 ft | 478 kts | 25° |
| 2026-04-22 08:01 | 30.64148 | 131.23055 | 38954 ft | 480 kts | 25° |
| 2026-04-22 08:02 | 30.69724 | 131.27352 | 38941 ft | 482 kts | 25° |
| 2026-04-22 08:02 | 30.75311 | 131.31665 | 38939 ft | 483 kts | 25° |
| 2026-04-22 08:03 | 30.80909 | 131.35993 | 38939 ft | 483 kts | 25° |
| 2026-04-22 08:03 | 30.86504 | 131.40325 | 38944 ft | 483 kts | 25° |
| 2026-04-22 08:04 | 30.92050 | 131.44626 | 38944 ft | 482 kts | 25° |
| 2026-04-22 08:04 | 30.97618 | 131.48949 | 38965 ft | 481 kts | 25° |
| 2026-04-22 08:05 | 31.03174 | 131.53269 | 38945 ft | 479 kts | 25° |
| 2026-04-22 08:05 | 31.08709 | 131.57578 | 38934 ft | 478 kts | 25° |
| 2026-04-22 08:06 | 31.14226 | 131.61879 | 38949 ft | 476 kts | 25° |
| 2026-04-22 08:06 | 31.19726 | 131.66174 | 38950 ft | 475 kts | 25° |
| 2026-04-22 08:07 | 31.25210 | 131.70461 | 38950 ft | 474 kts | 25° |
| 2026-04-22 08:07 | 31.30684 | 131.74746 | 38959 ft | 474 kts | 25° |
| 2026-04-22 08:08 | 31.36156 | 131.79037 | 38953 ft | 473 kts | 25° |
| 2026-04-22 08:08 | 31.41625 | 131.83334 | 38955 ft | 473 kts | 26° |
| 2026-04-22 08:09 | 31.47102 | 131.87643 | 38965 ft | 475 kts | 26° |
| 2026-04-22 08:09 | 31.52581 | 131.91961 | 38961 ft | 476 kts | 26° |
| 2026-04-22 08:10 | 31.58079 | 131.96300 | 38974 ft | 477 kts | 26° |
| 2026-04-22 08:10 | 31.63563 | 132.00633 | 38963 ft | 479 kts | 26° |
| 2026-04-22 08:11 | 31.69098 | 132.05014 | 38966 ft | 481 kts | 26° |
| 2026-04-22 08:11 | 31.74653 | 132.09418 | 38986 ft | 482 kts | 26° |
| 2026-04-22 08:12 | 31.80227 | 132.13842 | 38977 ft | 485 kts | 26° |
| 2026-04-22 08:12 | 31.85828 | 132.18296 | 38967 ft | 487 kts | 26° |
| 2026-04-22 08:13 | 31.91445 | 132.22769 | 38971 ft | 488 kts | 26° |
| 2026-04-22 08:13 | 31.97078 | 132.27262 | 38966 ft | 489 kts | 26° |
| 2026-04-22 08:14 | 32.02718 | 132.31767 | 38965 ft | 490 kts | 26° |
| 2026-04-22 08:14 | 32.08367 | 132.36286 | 38974 ft | 492 kts | 26° |
| 2026-04-22 08:15 | 32.13995 | 132.40898 | 38957 ft | 495 kts | 29° |
| 2026-04-22 08:15 | 32.19407 | 132.45961 | 38989 ft | 497 kts | 31° |
| 2026-04-22 08:16 | 32.24761 | 132.51134 | 38974 ft | 497 kts | 31° |
| 2026-04-22 08:16 | 32.30136 | 132.56282 | 38972 ft | 496 kts | 31° |
| 2026-04-22 08:17 | 32.35513 | 132.61393 | 38980 ft | 496 kts | 31° |
| 2026-04-22 08:17 | 32.40854 | 132.66466 | 38974 ft | 495 kts | 31° |
| 2026-04-22 08:18 | 32.46222 | 132.71574 | 38973 ft | 495 kts | 31° |
| 2026-04-22 08:18 | 32.51587 | 132.76691 | 38974 ft | 496 kts | 31° |
| 2026-04-22 08:19 | 32.56964 | 132.81827 | 38984 ft | 497 kts | 31° |
| 2026-04-22 08:19 | 32.59663 | 132.84406 | 38814 ft | 502 kts | 31° |
| 2026-04-22 08:19 | 32.62402 | 132.87025 | 38571 ft | 506 kts | 31° |
| 2026-04-22 08:20 | 32.65141 | 132.89651 | 38302 ft | 506 kts | 31° |
| 2026-04-22 08:20 | 32.67869 | 132.92273 | 38019 ft | 503 kts | 32° |
| 2026-04-22 08:20 | 32.70584 | 132.94881 | 37754 ft | 502 kts | 32° |
| 2026-04-22 08:20 | 32.73304 | 132.97492 | 37512 ft | 505 kts | 32° |
| 2026-04-22 08:21 | 32.75915 | 133.00326 | 37240 ft | 514 kts | 41° |
| 2026-04-22 08:21 | 32.78188 | 133.03658 | 36984 ft | 523 kts | 49° |
| 2026-04-22 08:21 | 32.80277 | 133.07195 | 36385 ft | 523 kts | 51° |
| 2026-04-22 08:21 | 32.82327 | 133.10761 | 35821 ft | 521 kts | 51° |
| 2026-04-22 08:22 | 32.84375 | 133.14321 | 35156 ft | 522 kts | 51° |
| 2026-04-22 08:22 | 32.86445 | 133.17881 | 34483 ft | 524 kts | 51° |
| 2026-04-22 08:22 | 32.88539 | 133.21439 | 33761 ft | 526 kts | 51° |
| 2026-04-22 08:22 | 32.90651 | 133.25001 | 32961 ft | 528 kts | 51° |
| 2026-04-22 08:23 | 32.92771 | 133.28570 | 32205 ft | 528 kts | 51° |
| 2026-04-22 08:23 | 32.94888 | 133.32136 | 31435 ft | 528 kts | 50° |
| 2026-04-22 08:23 | 32.97001 | 133.35703 | 30753 ft | 527 kts | 50° |
| 2026-04-22 08:23 | 32.99103 | 133.39260 | 30257 ft | 521 kts | 50° |
| 2026-04-22 08:24 | 33.01176 | 133.42769 | 29605 ft | 517 kts | 50° |
| 2026-04-22 08:24 | 33.03235 | 133.46259 | 28983 ft | 512 kts | 50° |
| 2026-04-22 08:24 | 33.05256 | 133.49694 | 28683 ft | 500 kts | 50° |
| 2026-04-22 08:24 | 33.07240 | 133.53076 | 28144 ft | 495 kts | 50° |
| 2026-04-22 08:25 | 33.09199 | 133.56415 | 27616 ft | 490 kts | 50° |
| 2026-04-22 08:25 | 33.11142 | 133.59729 | 27076 ft | 486 kts | 50° |
| 2026-04-22 08:25 | 33.13070 | 133.63019 | 26526 ft | 482 kts | 50° |
| 2026-04-22 08:25 | 33.14987 | 133.66292 | 25961 ft | 479 kts | 50° |
| 2026-04-22 08:26 | 33.16889 | 133.69543 | 25393 ft | 476 kts | 51° |
| 2026-04-22 08:26 | 33.18778 | 133.72774 | 24834 ft | 474 kts | 51° |
| 2026-04-22 08:26 | 33.20656 | 133.75991 | 24281 ft | 471 kts | 51° |
| 2026-04-22 08:26 | 33.22528 | 133.79200 | 23747 ft | 469 kts | 51° |
| 2026-04-22 08:27 | 33.24389 | 133.82392 | 23113 ft | 467 kts | 51° |
| 2026-04-22 08:27 | 33.26236 | 133.85566 | 22517 ft | 464 kts | 51° |
| 2026-04-22 08:27 | 33.28067 | 133.88713 | 21963 ft | 460 kts | 51° |
| 2026-04-22 08:27 | 33.29885 | 133.91841 | 21417 ft | 456 kts | 51° |
| 2026-04-22 08:28 | 33.31687 | 133.94942 | 20889 ft | 452 kts | 51° |
| 2026-04-22 08:28 | 33.33472 | 133.98015 | 20398 ft | 448 kts | 51° |
| 2026-04-22 08:28 | 33.35239 | 134.01057 | 19850 ft | 445 kts | 51° |
| 2026-04-22 08:28 | 33.36998 | 134.04088 | 19302 ft | 442 kts | 51° |
| 2026-04-22 08:29 | 33.38790 | 134.07061 | 18772 ft | 437 kts | 49° |
| 2026-04-22 08:29 | 33.40522 | 134.10036 | 18176 ft | 434 kts | 51° |
| 2026-04-22 08:29 | 33.42243 | 134.12969 | 17688 ft | 429 kts | 51° |
| 2026-04-22 08:29 | 33.43864 | 134.15981 | 17096 ft | 429 kts | 52° |
| 2026-04-22 08:30 | 33.45531 | 134.18920 | 16573 ft | 425 kts | 51° |
| 2026-04-22 08:30 | 33.47200 | 134.21825 | 16064 ft | 423 kts | 53° |
| 2026-04-22 08:30 | 33.48887 | 134.24697 | 15503 ft | 418 kts | 47° |
| 2026-04-22 08:30 | 33.50612 | 134.27479 | 15017 ft | 418 kts | 53° |
| 2026-04-22 08:31 | 33.52212 | 134.30384 | 14511 ft | 417 kts | 52° |
| 2026-04-22 08:31 | 33.53824 | 134.33264 | 13999 ft | 416 kts | 52° |
| 2026-04-22 08:31 | 33.56527 | 134.38015 | 13066 ft | 413 kts | 52° |
| 2026-04-22 08:32 | 33.58145 | 134.40844 | 12548 ft | 409 kts | 53° |
| 2026-04-22 08:32 | 33.59748 | 134.43648 | 12035 ft | 405 kts | 54° |
| 2026-04-22 08:32 | 33.61372 | 134.46385 | 11544 ft | 400 kts | 48° |
| 2026-04-22 08:32 | 33.63379 | 134.48643 | 11055 ft | 393 kts | 37° |
| 2026-04-22 08:33 | 33.66156 | 134.51301 | 10811 ft | 377 kts | 36° |
| 2026-04-22 08:33 | 33.68173 | 134.53225 | 10642 ft | 365 kts | 37° |
| 2026-04-22 08:33 | 33.69490 | 134.54506 | 10543 ft | 357 kts | 38° |
| 2026-04-22 08:33 | 33.71485 | 134.56193 | 10330 ft | 348 kts | 24° |
| 2026-04-22 08:34 | 33.73791 | 134.56996 | 10101 ft | 348 kts | 2° |
| 2026-04-22 08:34 | 33.76224 | 134.57055 | 9890 ft | 351 kts | 357° |
| 2026-04-22 08:34 | 33.78655 | 134.57106 | 9628 ft | 346 kts | 358° |
| 2026-04-22 08:34 | 33.81035 | 134.57190 | 9353 ft | 338 kts | 359° |
| 2026-04-22 08:35 | 33.83357 | 134.57285 | 9079 ft | 331 kts | 359° |
| 2026-04-22 08:35 | 33.85631 | 134.57383 | 8818 ft | 324 kts | 359° |
| 2026-04-22 08:35 | 33.88573 | 134.57512 | 8478 ft | 315 kts | 359° |
| 2026-04-22 08:35 | 33.90050 | 134.57578 | 8290 ft | 312 kts | 359° |
| 2026-04-22 08:36 | 33.92194 | 134.57672 | 8068 ft | 305 kts | 359° |
| 2026-04-22 08:36 | 33.94272 | 134.57765 | 7989 ft | 293 kts | 359° |
| 2026-04-22 08:36 | 33.96243 | 134.57853 | 7967 ft | 281 kts | 359° |
| 2026-04-22 08:36 | 33.98165 | 134.57938 | 7961 ft | 273 kts | 359° |
| 2026-04-22 08:37 | 34.00050 | 134.58022 | 7970 ft | 271 kts | 359° |
| 2026-04-22 08:37 | 34.01960 | 134.58104 | 7986 ft | 278 kts | 359° |
| 2026-04-22 08:37 | 34.03906 | 134.58188 | 7984 ft | 281 kts | 359° |
| 2026-04-22 08:37 | 34.05857 | 134.58274 | 7971 ft | 279 kts | 359° |
| 2026-04-22 08:38 | 34.07794 | 134.58361 | 7967 ft | 278 kts | 359° |
| 2026-04-22 08:38 | 34.09724 | 134.58447 | 7967 ft | 277 kts | 359° |
| 2026-04-22 08:38 | 34.11639 | 134.58532 | 7971 ft | 276 kts | 359° |
| 2026-04-22 08:38 | 34.13557 | 134.58617 | 7975 ft | 276 kts | 359° |
| 2026-04-22 08:39 | 34.15477 | 134.58703 | 7978 ft | 276 kts | 359° |
| 2026-04-22 08:39 | 34.17398 | 134.58861 | 7972 ft | 279 kts | 10° |
| 2026-04-22 08:39 | 34.19138 | 134.59915 | 7907 ft | 287 kts | 41° |
| 2026-04-22 08:39 | 34.20490 | 134.61707 | 7806 ft | 290 kts | 50° |
| 2026-04-22 08:40 | 34.21769 | 134.63591 | 7665 ft | 291 kts | 50° |
| 2026-04-22 08:40 | 34.23044 | 134.65484 | 7540 ft | 289 kts | 50° |
| 2026-04-22 08:40 | 34.24313 | 134.67346 | 7411 ft | 285 kts | 50° |
| 2026-04-22 08:40 | 34.25570 | 134.69173 | 7294 ft | 281 kts | 50° |
| 2026-04-22 08:41 | 34.26818 | 134.70981 | 7165 ft | 281 kts | 49° |
| 2026-04-22 08:41 | 34.28068 | 134.72801 | 7053 ft | 281 kts | 50° |
| 2026-04-22 08:41 | 34.29315 | 134.74612 | 6950 ft | 280 kts | 49° |
| 2026-04-22 08:41 | 34.30566 | 134.76418 | 6832 ft | 280 kts | 49° |
| 2026-04-22 08:42 | 34.31813 | 134.78222 | 6715 ft | 279 kts | 50° |
| 2026-04-22 08:42 | 34.33057 | 134.80025 | 6609 ft | 279 kts | 50° |
| 2026-04-22 08:42 | 34.34301 | 134.81828 | 6487 ft | 279 kts | 50° |
| 2026-04-22 08:42 | 34.35543 | 134.83632 | 6372 ft | 279 kts | 50° |
| 2026-04-22 08:43 | 34.36783 | 134.85435 | 6240 ft | 279 kts | 49° |
| 2026-04-22 08:43 | 34.38022 | 134.87236 | 6125 ft | 278 kts | 50° |
| 2026-04-22 08:43 | 34.39247 | 134.89017 | 6006 ft | 277 kts | 50° |
| 2026-04-22 08:43 | 34.40483 | 134.90815 | 5898 ft | 275 kts | 50° |
| 2026-04-22 08:44 | 34.41703 | 134.92591 | 5774 ft | 274 kts | 50° |
| 2026-04-22 08:44 | 34.42916 | 134.94358 | 5657 ft | 272 kts | 50° |
| 2026-04-22 08:44 | 34.44125 | 134.96119 | 5546 ft | 271 kts | 50° |
| 2026-04-22 08:44 | 34.45325 | 134.97870 | 5430 ft | 270 kts | 50° |
| 2026-04-22 08:45 | 34.46521 | 134.99614 | 5322 ft | 269 kts | 50° |
| 2026-04-22 08:45 | 34.47712 | 135.01351 | 5195 ft | 268 kts | 50° |
| 2026-04-22 08:45 | 34.48900 | 135.03086 | 5077 ft | 267 kts | 50° |
| 2026-04-22 08:45 | 34.50068 | 135.04793 | 4964 ft | 266 kts | 50° |
| 2026-04-22 08:46 | 34.51249 | 135.06519 | 4850 ft | 266 kts | 50° |
| 2026-04-22 08:46 | 34.52426 | 135.08240 | 4736 ft | 265 kts | 50° |
| 2026-04-22 08:46 | 34.53601 | 135.09959 | 4614 ft | 265 kts | 50° |
| 2026-04-22 08:46 | 34.54775 | 135.11677 | 4504 ft | 264 kts | 50° |
| 2026-04-22 08:47 | 34.55949 | 135.13395 | 4390 ft | 264 kts | 50° |
| 2026-04-22 08:47 | 34.57119 | 135.15110 | 4283 ft | 264 kts | 50° |
| 2026-04-22 08:47 | 34.58292 | 135.16828 | 4171 ft | 265 kts | 50° |
| 2026-04-22 08:47 | 34.59431 | 135.18581 | 4052 ft | 265 kts | 59° |
| 2026-04-22 08:48 | 34.59944 | 135.20696 | 3891 ft | 264 kts | 92° |
| 2026-04-22 08:48 | 34.59548 | 135.22848 | 3682 ft | 261 kts | 116° |
| 2026-04-22 08:48 | 34.58709 | 135.24748 | 3480 ft | 251 kts | 122° |
| 2026-04-22 08:48 | 34.57858 | 135.26557 | 3224 ft | 242 kts | 122° |
| 2026-04-22 08:49 | 34.57047 | 135.28301 | 2986 ft | 234 kts | 122° |
| 2026-04-22 08:49 | 34.56272 | 135.29983 | 2782 ft | 223 kts | 122° |
| 2026-04-22 08:49 | 34.55538 | 135.31588 | 2589 ft | 212 kts | 122° |
| 2026-04-22 08:49 | 34.54837 | 135.33123 | 2384 ft | 204 kts | 122° |
| 2026-04-22 08:50 | 34.53957 | 135.34371 | 2169 ft | 189 kts | 155° |
| 2026-04-22 08:50 | 34.52764 | 135.34476 | 2040 ft | 167 kts | 205° |
| 2026-04-22 08:50 | 34.51902 | 135.33663 | 1911 ft | 154 kts | 223° |
| 2026-04-22 08:50 | 34.51139 | 135.32765 | 1786 ft | 149 kts | 225° |
| 2026-04-22 08:51 | 34.50419 | 135.31861 | 1629 ft | 150 kts | 229° |
| 2026-04-22 08:51 | 34.49750 | 135.30909 | 1442 ft | 148 kts | 230° |
| 2026-04-22 08:51 | 34.49102 | 135.29948 | 1252 ft | 148 kts | 230° |
| 2026-04-22 08:51 | 34.48449 | 135.28971 | 1059 ft | 150 kts | 231° |
| 2026-04-22 08:52 | 34.47790 | 135.27986 | 860 ft | 151 kts | 231° |
| 2026-04-22 08:52 | 34.47129 | 135.26997 | 665 ft | 151 kts | 231° |
| 2026-04-22 08:52 | 34.46469 | 135.26010 | 463 ft | 150 kts | 231° |
| 2026-04-22 08:52 | 34.45814 | 135.25035 | 269 ft | 148 kts | 231° |
| 2026-04-22 08:53 | 34.45170 | 135.24068 | 81 ft | 147 kts | 232° |
| 2026-04-22 08:53 | 34.44555 | 135.23148 | 29 ft | 132 kts | 232° |
| 2026-04-22 08:53 | 34.44011 | 135.22340 | 30 ft | 115 kts | 231° |
| 2026-04-22 08:53 | 34.43645 | 135.21801 | 30 ft | 47 kts | 222° |
| 2026-04-22 08:54 | 34.43450 | 135.21683 | 30 ft | 13 kts | 202° |
| 2026-04-22 08:54 | 34.43378 | 135.21721 | 28 ft | 14 kts | 97° |
| 2026-04-22 08:54 | 34.43427 | 135.21815 | 28 ft | 13 kts | 51° |
| 2026-04-22 08:54 | 34.43484 | 135.21899 | 28 ft | 13 kts | 51° |
| 2026-04-22 08:55 | 34.43539 | 135.21982 | 28 ft | 13 kts | 51° |